This is the latest recevied weather packets stored in our database for station/object KE8GJZ-1. If no packets are shown the sender has not sent any weather packets the latest 10 day(s).
| Time | Temp. | Humidity | Pressure | Rain* | Wind** | Luminosity | Snow |
|---|---|---|---|---|---|---|---|
| 1777348259 | 15.56° C | 95% | 1007 hPa | 1.78 mm | - | 0 W/m² | - |
| 1777347956 | 15.56° C | 95% | 1007.1 hPa | 3.05 mm | - | 0 W/m² | - |
| 1777347655 | 16.11° C | 94% | 1007.1 hPa | 4.32 mm | - | 0 W/m² | - |
| 1777347350 | 16.11° C | 93% | 1007.3 hPa | 6.1 mm | - | 0 W/m² | - |
| 1777347046 | 16.67° C | 90% | 1007.1 hPa | 4.83 mm | - | 0 W/m² | - |
| 1777346744 | 17.22° C | 87% | 1006.9 hPa | 1.78 mm | - | 0 W/m² | - |
| 1777346438 | 17.78° C | 83% | 1007 hPa | 0 mm | - | 0 W/m² | - |
| 1777346136 | 17.78° C | 83% | 1006.5 hPa | 0 mm | - | 0 W/m² | - |
| 1777345833 | 17.78° C | 83% | 1006.1 hPa | 0 mm | - | 0 W/m² | - |
| 1777345531 | 17.78° C | 82% | 1005.7 hPa | 0 mm | - | 0 W/m² | - |
| 1777345228 | 17.78° C | 82% | 1006 hPa | 0 mm | - | 0 W/m² | - |
| 1777344924 | 17.78° C | 82% | 1006.1 hPa | 0 mm | - | 0 W/m² | - |
| 1777344620 | 17.78° C | 82% | 1006.3 hPa | 0 mm | - | 0 W/m² | - |
| 1777343712 | 17.22° C | 82% | 1006.3 hPa | 0 mm | - | 0 W/m² | - |
| 1777343409 | 17.22° C | 82% | 1005.8 hPa | 0 mm | - | 0 W/m² | - |
| 1777342501 | 17.22° C | 81% | 1005.8 hPa | 0 mm | - | 0 W/m² | - |
| 1777341286 | 16.67° C | 81% | 1006 hPa | 0 mm | - | 0 W/m² | - |
| 1777340681 | 16.67° C | 82% | 1005.8 hPa | 0 mm | - | 0 W/m² | - |
| 1777339471 | 16.11° C | 82% | 1006 hPa | 0 mm | - | 0 W/m² | - |
| 1777338866 | 16.11° C | 82% | 1005.9 hPa | 0 mm | - | 0 W/m² | - |
| 1777336745 | 16.11° C | 80% | 1006.4 hPa | 0 mm | - | 0 W/m² | - |
| 1777336141 | 16.11° C | 79% | 1006.4 hPa | 0 mm | - | 0 W/m² | - |
| 1777335535 | 16.11° C | 78% | 1006.4 hPa | 0 mm | - | 2 W/m² | - |
| 1777334929 | 16.67° C | 78% | 1006.8 hPa | 0 mm | - | 5 W/m² | - |
| 1777334627 | 16.67° C | 78% | 1006.9 hPa | 0 mm | - | 7 W/m² | - |
* Rain latest hour (hover to see other rain measurements)
** Current wind speed in m/s (hover to see current wind gust speed)